. : TABULKA : . . : GRAFY : . . : METAR : .


.: METAR informace z letišť v ČR :.

LKPR - Prague/Ruzyne, Czech Republic
Distance from station: WNW 188km
Updated: Fri, 23-Feb-2018 9:00pm CET
Clear
Clear
 Wind from NE
Wind: NE 9 km/h
Temperature: -7°C
Wind Chill: -12°C
Dew Point: -10°C
Humidity: 79%
Barometer: 1022 hPa
Summary: Clear
Visibility: greater than 10 km
2018/02/23 20:00 LKPR 232000Z 05005KT CAVOK M07/M10 Q1022 NOSIG
LKTB - Brno/Turany, Czech Republic
Distance from station: S 28km
Updated: Fri, 23-Feb-2018 9:00pm CET
Mostly Cloudy
Mostly Cloudy
 Wind from NNE
Wind: NNE 17 km/h
Temperature: -3°C
Wind Chill: -8°C
Dew Point: -8°C
Humidity: 69%
Barometer: 1021 hPa
Clouds: Mostly Cloudy
Visibility: 10 km
Cloud details: Mostly Cloudy 884 m
2018/02/23 20:00 LKTB 232000Z 03009KT 350V060 9999 BKN029 M03/M08 Q1021 NOSIG
 
LKMT - Ostrava/Mosnov, Czech Republic
Distance from station: ENE 112km
Updated: Fri, 23-Feb-2018 9:00pm CET
Light snow, Overcast
Light snow, Overcast
 Wind from NNE
Wind: NNE 20 km/h
Temperature: -4°C
Wind Chill: -11°C
Dew Point: -7°C
Humidity: 80%
Barometer: 1022 hPa
Summary: Light Snow
Clouds: Overcast
Visibility: 6 km
Cloud details: Overcast 1097 m
2018/02/23 20:00 LKMT 232000Z 03011KT 6000 -SN OVC036 M04/M07 Q1022 R04/41//95 NOSIG
LKPD - Pardubice, Czech Republic
Distance from station: NW 96km
Updated: Fri, 23-Feb-2018 9:00pm CET
Clear
Clear
 Wind from NNE
Wind: NNE 6 km/h
Temperature: -5°C
Dew Point: -10°C
Humidity: 68%
Barometer: 1022 hPa
Summary: Clear
Visibility: greater than 10 km
2018/02/23 20:00 LKPD 232000Z 03003KT CAVOK M05/M10 Q1022 NOSIG
 
LKNA - Namest, Czech Republic
Distance from station: WSW 45km
Updated: Fri, 23-Feb-2018 9:00pm CET
Mostly Cloudy
Mostly Cloudy
 Wind from NE
Wind: NE 19 km/h
Temperature: -5°C
Wind Chill: -12°C
Dew Point: -10°C
Humidity: 68%
Barometer: 1019 hPa
Clouds: Mostly Cloudy
Visibility: 10 km
Cloud details: Mostly Cloudy 640 m
2018/02/23 20:00 LKNA 232000Z 05010KT 9999 BKN021 M05/M10 Q1019 NOSIG
LKKU - Kunovice, Czech Republic
Distance from station: ESE 70km
Updated: Fri, 23-Feb-2018 4:00pm CET
NOT Current
Mist, Few clouds
Mist, Few clouds
 Wind from N
Wind: N 31 km/h
Temperature: -2°C
Wind Chill: -9°C
Dew Point: -5°C
Humidity: 80%
Barometer: 1018 hPa
Summary: Mist
Clouds: Few Clouds
Visibility: 5 km
Cloud details: Few Clouds 762 m
2018/02/23 15:00 LKKU 231500Z 36017KT 5000 BR FEW025 M02/M05 Q1018
 
LKCV - Caslav, Czech Republic
Distance from station: NW 109km
Updated: Fri, 23-Feb-2018 9:00pm CET
Clear
Clear
 Wind from varies
Wind: varies 4 km/h
Temperature: -5°C
Dew Point: -10°C
Humidity: 68%
Barometer: 1022 hPa
Summary: Clear
Visibility: greater than 10 km
2018/02/23 20:00 LKCV 232000Z VRB02KT CAVOK M05/M10 Q1022 NOSIG
LKKB - Kbely, Czech Republic
Distance from station: WNW 171km
Updated: Fri, 23-Feb-2018 9:00pm CET
Clear
Clear
 Wind from NE
Wind: NE 7 km/h
Temperature: -7°C
Wind Chill: -11°C
Dew Point: -10°C
Humidity: 79%
Barometer: 1023 hPa
Summary: Clear
Visibility: greater than 10 km
2018/02/23 20:00 LKKB 232000Z 04004KT CAVOK M07/M10 Q1023 NOSIG
 
LKVO - Vodochody, Czech Republic
Distance from station: WNW 185km
Updated: Fri, 23-Feb-2018 4:00pm CET
NOT Current
Clear
Clear
 Wind from NNE
Wind: NNE 13 km/h
Temperature: 0°C
Wind Chill: -4°C
Dew Point: -9°C
Humidity: 51%
Barometer: 1020 hPa
Summary: Clear
Visibility: greater than 10 km
2018/02/23 15:00 LKVO 231500Z 03007KT 320V090 CAVOK M00/M09 Q1020

Metar display script from Saratoga-Weather.org